PWSweather.com
Personal Weather Stations
Station Observations
IMAZOWIE6
WarszawaPL

WarszawaPL

Lat: 52.27957, Lon: 21.05489

Elevation: 100

Station Type: WS1080

http://stacjapogody.waw.pl/

High Low Average
Temperature 74.5°F23.6°C 49.1°F9.5°C 61.7°F16.5°C
Dew Point 5.3°F-14.8°C -167.9°F-111.1°C -147.1°F-99.5°C
Winds 4.0 mph 6.4 kmh Calm Calm 1.0 mph N1.6 kmh N
Wind Gusts 6.8 mph10.9 kmh -- 3.0 mph4.8 kmh
Humidity 13% 10% 12%
Pressure 29.82 in1009.8 mb 29.64 in1003.7 mb -
Precipitation 0.00 in0.0 mm - -
Hour Temp Dew Point Humidity Winds Wind Gusts Pressure Precip Precip Rate Daily Precip Total
12:06 AM 49.1°F9.5°C -167.9°F-111.1°C - 2.8 mph N4.5 kmh N 5.4 mph8.7 kmh 29.82 in1009.8 mb 0.00 in0.0 mm 0.00 in0.0 mm 0.00 in0.0 mm
12:21 AM 49.1°F9.5°C -167.9°F-111.1°C - 2.0 mph N3.2 kmh N 4.0 mph6.4 kmh 29.81 in1009.5 mb 0.00 in0.0 mm 0.00 in0.0 mm 0.00 in0.0 mm
12:36 AM 49.1°F9.5°C -167.9°F-111.1°C - 2.0 mph N3.2 kmh N 4.0 mph6.4 kmh 29.81 in1009.5 mb 0.00 in0.0 mm 0.00 in0.0 mm 0.00 in0.0 mm
12:51 AM 49.1°F9.5°C -167.9°F-111.1°C - 2.0 mph N3.2 kmh N 4.8 mph7.7 kmh 29.81 in1009.5 mb 0.00 in0.0 mm 0.00 in0.0 mm 0.00 in0.0 mm
01:06 AM 49.1°F9.5°C -167.9°F-111.1°C - 1.4 mph N2.3 kmh N 2.8 mph4.5 kmh 29.81 in1009.5 mb 0.00 in0.0 mm 0.00 in0.0 mm 0.00 in0.0 mm
01:21 AM 49.1°F9.5°C -167.9°F-111.1°C - 2.0 mph N3.2 kmh N 4.8 mph7.7 kmh 29.80 in1009.1 mb 0.00 in0.0 mm 0.00 in0.0 mm 0.00 in0.0 mm
01:36 AM 49.5°F9.7°C -167.9°F-111.1°C - 2.0 mph N3.2 kmh N 4.8 mph7.7 kmh 29.80 in1009.1 mb 0.00 in0.0 mm 0.00 in0.0 mm 0.00 in0.0 mm
01:51 AM 49.1°F9.5°C -167.9°F-111.1°C - 2.0 mph N3.2 kmh N 5.4 mph8.7 kmh 29.79 in1008.8 mb 0.00 in0.0 mm 0.00 in0.0 mm 0.00 in0.0 mm
02:06 AM 49.1°F9.5°C -167.9°F-111.1°C - 1.4 mph N2.3 kmh N 2.8 mph4.5 kmh 29.79 in1008.8 mb 0.00 in0.0 mm 0.00 in0.0 mm 0.00 in0.0 mm
02:21 AM 49.1°F9.5°C -167.9°F-111.1°C - 1.4 mph N2.3 kmh N 4.0 mph6.4 kmh 29.78 in1008.5 mb 0.00 in0.0 mm 0.00 in0.0 mm 0.00 in0.0 mm
02:36 AM 49.1°F9.5°C -167.9°F-111.1°C - 2.0 mph N3.2 kmh N 3.4 mph5.5 kmh 29.78 in1008.5 mb 0.00 in0.0 mm 0.00 in0.0 mm 0.00 in0.0 mm
02:51 AM 49.5°F9.7°C -167.9°F-111.1°C - 1.4 mph N2.3 kmh N 2.8 mph4.5 kmh 29.77 in1008.1 mb 0.00 in0.0 mm 0.00 in0.0 mm 0.00 in0.0 mm
03:06 AM 49.6°F9.8°C -167.8°F-111.0°C - 1.4 mph N2.3 kmh N 2.8 mph4.5 kmh 29.77 in1008.1 mb 0.00 in0.0 mm 0.00 in0.0 mm 0.00 in0.0 mm
03:21 AM 50.4°F10.2°C -167.8°F-111.0°C - 1.4 mph N2.3 kmh N 2.8 mph4.5 kmh 29.77 in1008.1 mb 0.00 in0.0 mm 0.00 in0.0 mm 0.00 in0.0 mm
03:36 AM 50.9°F10.5°C -167.7°F-110.9°C - 2.0 mph N3.2 kmh N 4.0 mph6.4 kmh 29.76 in1007.8 mb 0.00 in0.0 mm 0.00 in0.0 mm 0.00 in0.0 mm
03:51 AM 50.9°F10.5°C -167.7°F-110.9°C - 1.4 mph N2.3 kmh N 3.4 mph5.5 kmh 29.76 in1007.8 mb 0.00 in0.0 mm 0.00 in0.0 mm 0.00 in0.0 mm
04:06 AM 51.1°F10.6°C -167.7°F-110.9°C - 1.4 mph N2.3 kmh N 3.4 mph5.5 kmh 29.75 in1007.5 mb 0.00 in0.0 mm 0.00 in0.0 mm 0.00 in0.0 mm
04:21 AM 51.3°F10.7°C -167.7°F-110.9°C - 2.0 mph N3.2 kmh N 4.0 mph6.4 kmh 29.75 in1007.5 mb 0.00 in0.0 mm 0.00 in0.0 mm 0.00 in0.0 mm
04:36 AM 51.6°F10.9°C -167.6°F-110.9°C - 0.6 mph N1.0 kmh N 3.4 mph5.5 kmh 29.74 in1007.1 mb 0.00 in0.0 mm 0.00 in0.0 mm 0.00 in0.0 mm
04:51 AM 52.2°F11.2°C -2.8°F-19.3°C 10% 0.6 mph N1.0 kmh N 2.0 mph3.2 kmh 29.74 in1007.1 mb 0.00 in0.0 mm 0.00 in0.0 mm 0.00 in0.0 mm
05:06 AM 52.3°F11.3°C -0.7°F-18.2°C 11% 2.0 mph N3.2 kmh N 4.8 mph7.7 kmh 29.74 in1007.1 mb 0.00 in0.0 mm 0.00 in0.0 mm 0.00 in0.0 mm
05:21 AM 53.2°F11.8°C 3.6°F-15.8°C 13% 2.0 mph N3.2 kmh N 4.0 mph6.4 kmh 29.74 in1007.1 mb 0.00 in0.0 mm 0.00 in0.0 mm 0.00 in0.0 mm
05:36 AM 53.6°F12.0°C 3.8°F-15.7°C 13% 2.0 mph N3.2 kmh N 4.8 mph7.7 kmh 29.74 in1007.1 mb 0.00 in0.0 mm 0.00 in0.0 mm 0.00 in0.0 mm
05:51 AM 53.6°F12.0°C 3.8°F-15.7°C 13% 2.0 mph N3.2 kmh N 3.4 mph5.5 kmh 29.74 in1007.1 mb 0.00 in0.0 mm 0.00 in0.0 mm 0.00 in0.0 mm
06:06 AM 53.8°F12.1°C 4.0°F-15.6°C 13% 2.0 mph N3.2 kmh N 4.8 mph7.7 kmh 29.73 in1006.8 mb 0.00 in0.0 mm 0.00 in0.0 mm 0.00 in0.0 mm
06:21 AM 54.1°F12.3°C 4.3°F-15.4°C 13% 2.8 mph N4.5 kmh N 4.0 mph6.4 kmh 29.73 in1006.8 mb 0.00 in0.0 mm 0.00 in0.0 mm 0.00 in0.0 mm
06:36 AM 54.5°F12.5°C 4.6°F-15.2°C 13% 0.6 mph N1.0 kmh N 2.8 mph4.5 kmh 29.73 in1006.8 mb 0.00 in0.0 mm 0.00 in0.0 mm 0.00 in0.0 mm
06:51 AM 54.9°F12.7°C 4.8°F-15.1°C 13% 1.4 mph N2.3 kmh N 2.8 mph4.5 kmh 29.74 in1007.1 mb 0.00 in0.0 mm 0.00 in0.0 mm 0.00 in0.0 mm
07:06 AM 55.9°F13.3°C 4.0°F-15.6°C 12% 0.6 mph N1.0 kmh N 2.8 mph4.5 kmh 29.73 in1006.8 mb 0.00 in0.0 mm 0.00 in0.0 mm 0.00 in0.0 mm
07:21 AM 57.6°F14.2°C 5.3°F-14.8°C 12% 2.8 mph N4.5 kmh N 4.0 mph6.4 kmh 29.73 in1006.8 mb 0.00 in0.0 mm 0.00 in0.0 mm 0.00 in0.0 mm
07:36 AM 58.1°F14.5°C -167.0°F-110.6°C - 2.8 mph N4.5 kmh N 4.8 mph7.7 kmh 29.73 in1006.8 mb 0.00 in0.0 mm 0.00 in0.0 mm 0.00 in0.0 mm
07:51 AM 58.8°F14.9°C -166.9°F-110.5°C - 2.8 mph N4.5 kmh N 4.8 mph7.7 kmh 29.73 in1006.8 mb 0.00 in0.0 mm 0.00 in0.0 mm 0.00 in0.0 mm
08:06 AM 59.5°F15.3°C -166.8°F-110.4°C - 2.0 mph N3.2 kmh N 5.4 mph8.7 kmh 29.73 in1006.8 mb 0.00 in0.0 mm 0.00 in0.0 mm 0.00 in0.0 mm
08:21 AM 64.2°F17.9°C -166.4°F-110.2°C - 2.0 mph N3.2 kmh N 6.2 mph10.0 kmh 29.73 in1006.8 mb 0.00 in0.0 mm 0.00 in0.0 mm 0.00 in0.0 mm
08:36 AM 69.6°F20.9°C -165.8°F-109.9°C - 2.0 mph N3.2 kmh N 4.8 mph7.7 kmh 29.73 in1006.8 mb 0.00 in0.0 mm 0.00 in0.0 mm 0.00 in0.0 mm
08:51 AM 71.6°F22.0°C -165.6°F-109.8°C - 2.8 mph N4.5 kmh N 4.8 mph7.7 kmh 29.74 in1007.1 mb 0.00 in0.0 mm 0.00 in0.0 mm 0.00 in0.0 mm
09:06 AM 69.3°F20.7°C -165.9°F-109.9°C - 1.4 mph N2.3 kmh N 2.8 mph4.5 kmh 29.73 in1006.8 mb 0.00 in0.0 mm 0.00 in0.0 mm 0.00 in0.0 mm
09:21 AM 71.2°F21.8°C -165.7°F-109.8°C - 4.0 mph N6.4 kmh N 6.2 mph10.0 kmh 29.73 in1006.8 mb 0.00 in0.0 mm 0.00 in0.0 mm 0.00 in0.0 mm
09:36 AM 73.8°F23.2°C -165.4°F-109.7°C - 4.0 mph N6.4 kmh N 6.2 mph10.0 kmh 29.73 in1006.8 mb 0.00 in0.0 mm 0.00 in0.0 mm 0.00 in0.0 mm
09:51 AM 74.1°F23.4°C -165.4°F-109.7°C - 3.4 mph N5.5 kmh N 5.4 mph8.7 kmh 29.73 in1006.8 mb 0.00 in0.0 mm 0.00 in0.0 mm 0.00 in0.0 mm
10:06 AM 74.1°F23.4°C -165.4°F-109.7°C - 2.8 mph N4.5 kmh N 4.8 mph7.7 kmh 29.73 in1006.8 mb 0.00 in0.0 mm 0.00 in0.0 mm 0.00 in0.0 mm
10:21 AM 74.5°F23.6°C -165.4°F-109.7°C - 3.4 mph N5.5 kmh N 6.2 mph10.0 kmh 29.73 in1006.8 mb 0.00 in0.0 mm 0.00 in0.0 mm 0.00 in0.0 mm
10:36 AM 72.9°F22.7°C -165.5°F-109.7°C - 2.8 mph N4.5 kmh N 5.4 mph8.7 kmh 29.73 in1006.8 mb 0.00 in0.0 mm 0.00 in0.0 mm 0.00 in0.0 mm
10:51 AM 70.3°F21.3°C -165.8°F-109.9°C - 2.8 mph N4.5 kmh N 6.2 mph10.0 kmh 29.73 in1006.8 mb 0.00 in0.0 mm 0.00 in0.0 mm 0.00 in0.0 mm
11:06 AM 69.4°F20.8°C -165.9°F-109.9°C - 4.0 mph N6.4 kmh N 6.8 mph10.9 kmh 29.72 in1006.4 mb 0.00 in0.0 mm 0.00 in0.0 mm 0.00 in0.0 mm
11:21 AM 69.1°F20.6°C -165.9°F-109.9°C - 2.8 mph N4.5 kmh N 5.4 mph8.7 kmh 29.72 in1006.4 mb 0.00 in0.0 mm 0.00 in0.0 mm 0.00 in0.0 mm
11:36 AM 69.3°F20.7°C -165.9°F-109.9°C - 3.4 mph N5.5 kmh N 5.4 mph8.7 kmh 29.73 in1006.8 mb 0.00 in0.0 mm 0.00 in0.0 mm 0.00 in0.0 mm
11:51 AM 70.2°F21.2°C -165.8°F-109.9°C - 2.0 mph N3.2 kmh N 4.0 mph6.4 kmh 29.72 in1006.4 mb 0.00 in0.0 mm 0.00 in0.0 mm 0.00 in0.0 mm
12:06 PM 70.7°F21.5°C -165.7°F-109.8°C - 2.8 mph N4.5 kmh N 4.8 mph7.7 kmh 29.72 in1006.4 mb 0.00 in0.0 mm 0.00 in0.0 mm 0.00 in0.0 mm
12:21 PM 70.7°F21.5°C -165.7°F-109.8°C - 2.0 mph N3.2 kmh N 3.4 mph5.5 kmh 29.72 in1006.4 mb 0.00 in0.0 mm 0.00 in0.0 mm 0.00 in0.0 mm
12:36 PM 71.2°F21.8°C -165.7°F-109.8°C - 1.4 mph N2.3 kmh N 2.8 mph4.5 kmh 29.71 in1006.1 mb 0.00 in0.0 mm 0.00 in0.0 mm 0.00 in0.0 mm
12:51 PM 71.2°F21.8°C -165.7°F-109.8°C - 2.8 mph N4.5 kmh N 6.2 mph10.0 kmh 29.71 in1006.1 mb 0.00 in0.0 mm 0.00 in0.0 mm 0.00 in0.0 mm
01:06 PM 70.2°F21.2°C -165.8°F-109.9°C - Calm Calm 0.6 mph1.0 kmh 29.71 in1006.1 mb 0.00 in0.0 mm 0.00 in0.0 mm 0.00 in0.0 mm
01:21 PM 71.2°F21.8°C -165.7°F-109.8°C - 2.8 mph N4.5 kmh N 6.2 mph10.0 kmh 29.71 in1006.1 mb 0.00 in0.0 mm 0.00 in0.0 mm 0.00 in0.0 mm
01:36 PM 71.4°F21.9°C -165.7°F-109.8°C - 1.4 mph N2.3 kmh N 3.4 mph5.5 kmh 29.70 in1005.8 mb 0.00 in0.0 mm 0.00 in0.0 mm 0.00 in0.0 mm
01:51 PM 69.8°F21.0°C -165.8°F-109.9°C - 2.0 mph N3.2 kmh N 4.0 mph6.4 kmh 29.70 in1005.8 mb 0.00 in0.0 mm 0.00 in0.0 mm 0.00 in0.0 mm
02:06 PM 69.4°F20.8°C -165.9°F-109.9°C - Calm Calm 0.6 mph1.0 kmh 29.70 in1005.8 mb 0.00 in0.0 mm 0.00 in0.0 mm 0.00 in0.0 mm
02:21 PM 68.7°F20.4°C -165.9°F-109.9°C - 1.4 mph N2.3 kmh N 2.8 mph4.5 kmh 29.70 in1005.8 mb 0.00 in0.0 mm 0.00 in0.0 mm 0.00 in0.0 mm
02:36 PM 70.2°F21.2°C -165.8°F-109.9°C - 0.6 mph N1.0 kmh N 2.0 mph3.2 kmh 29.69 in1005.4 mb 0.00 in0.0 mm 0.00 in0.0 mm 0.00 in0.0 mm
02:51 PM 70.2°F21.2°C -165.8°F-109.9°C - 2.0 mph N3.2 kmh N 4.0 mph6.4 kmh 29.69 in1005.4 mb 0.00 in0.0 mm 0.00 in0.0 mm 0.00 in0.0 mm
03:06 PM 70.0°F21.1°C -165.8°F-109.9°C - Calm Calm 0.6 mph1.0 kmh 29.69 in1005.4 mb 0.00 in0.0 mm 0.00 in0.0 mm 0.00 in0.0 mm
03:21 PM 69.8°F21.0°C -165.8°F-109.9°C - 2.0 mph N3.2 kmh N 3.4 mph5.5 kmh 29.68 in1005.1 mb 0.00 in0.0 mm 0.00 in0.0 mm 0.00 in0.0 mm
03:36 PM 70.3°F21.3°C -165.8°F-109.9°C - 2.0 mph N3.2 kmh N 5.4 mph8.7 kmh 29.68 in1005.1 mb 0.00 in0.0 mm 0.00 in0.0 mm 0.00 in0.0 mm
03:51 PM 70.7°F21.5°C -165.7°F-109.8°C - Calm Calm 2.8 mph4.5 kmh 29.67 in1004.7 mb 0.00 in0.0 mm 0.00 in0.0 mm 0.00 in0.0 mm
04:06 PM 70.5°F21.4°C -165.7°F-109.8°C - 1.4 mph N2.3 kmh N 3.4 mph5.5 kmh 29.67 in1004.7 mb 0.00 in0.0 mm 0.00 in0.0 mm 0.00 in0.0 mm
04:21 PM 69.3°F20.7°C -165.9°F-109.9°C - Calm Calm 0.6 mph1.0 kmh 29.67 in1004.7 mb 0.00 in0.0 mm 0.00 in0.0 mm 0.00 in0.0 mm
04:36 PM 69.1°F20.6°C -165.9°F-109.9°C - 2.0 mph N3.2 kmh N 2.8 mph4.5 kmh 29.66 in1004.4 mb 0.00 in0.0 mm 0.00 in0.0 mm 0.00 in0.0 mm
04:51 PM 68.5°F20.3°C -165.9°F-109.9°C - 2.8 mph N4.5 kmh N 4.8 mph7.7 kmh 29.66 in1004.4 mb 0.00 in0.0 mm 0.00 in0.0 mm 0.00 in0.0 mm
05:06 PM 68.2°F20.1°C -166.0°F-110.0°C - 0.6 mph N1.0 kmh N 2.0 mph3.2 kmh 29.66 in1004.4 mb 0.00 in0.0 mm 0.00 in0.0 mm 0.00 in0.0 mm
05:21 PM 67.1°F19.5°C -166.1°F-110.1°C - Calm Calm 1.4 mph2.3 kmh 29.66 in1004.4 mb 0.00 in0.0 mm 0.00 in0.0 mm 0.00 in0.0 mm
05:36 PM 66.0°F18.9°C -166.2°F-110.1°C - 0.6 mph N1.0 kmh N 2.0 mph3.2 kmh 29.66 in1004.4 mb 0.00 in0.0 mm 0.00 in0.0 mm 0.00 in0.0 mm
05:51 PM 65.5°F18.6°C -166.3°F-110.2°C - 0.6 mph N1.0 kmh N 1.4 mph2.3 kmh 29.66 in1004.4 mb 0.00 in0.0 mm 0.00 in0.0 mm 0.00 in0.0 mm
06:06 PM 64.9°F18.3°C -166.3°F-110.2°C - Calm Calm -- 29.67 in1004.7 mb 0.00 in0.0 mm 0.00 in0.0 mm 0.00 in0.0 mm
06:21 PM 63.9°F17.7°C -166.4°F-110.2°C - Calm Calm -- 29.67 in1004.7 mb 0.00 in0.0 mm 0.00 in0.0 mm 0.00 in0.0 mm
06:36 PM 63.3°F17.4°C -166.5°F-110.3°C - Calm Calm -- 29.67 in1004.7 mb 0.00 in0.0 mm 0.00 in0.0 mm 0.00 in0.0 mm
06:51 PM 63.0°F17.2°C -166.5°F-110.3°C - Calm Calm -- 29.67 in1004.7 mb 0.00 in0.0 mm 0.00 in0.0 mm 0.00 in0.0 mm
07:06 PM 63.3°F17.4°C -166.5°F-110.3°C - Calm Calm -- 29.67 in1004.7 mb 0.00 in0.0 mm 0.00 in0.0 mm 0.00 in0.0 mm
07:21 PM 62.8°F17.1°C -166.5°F-110.3°C - Calm Calm -- 29.67 in1004.7 mb 0.00 in0.0 mm 0.00 in0.0 mm 0.00 in0.0 mm
07:36 PM 61.7°F16.5°C -166.6°F-110.3°C - Calm Calm -- 29.66 in1004.4 mb 0.00 in0.0 mm 0.00 in0.0 mm 0.00 in0.0 mm
07:51 PM 61.3°F16.3°C -166.7°F-110.4°C - Calm Calm -- 29.67 in1004.7 mb 0.00 in0.0 mm 0.00 in0.0 mm 0.00 in0.0 mm
08:06 PM 61.5°F16.4°C -166.6°F-110.3°C - Calm Calm -- 29.66 in1004.4 mb 0.00 in0.0 mm 0.00 in0.0 mm 0.00 in0.0 mm
08:21 PM 62.1°F16.7°C -166.6°F-110.3°C - Calm Calm -- 29.66 in1004.4 mb 0.00 in0.0 mm 0.00 in0.0 mm 0.00 in0.0 mm
08:36 PM 62.1°F16.7°C -166.6°F-110.3°C - Calm Calm -- 29.66 in1004.4 mb 0.00 in0.0 mm 0.00 in0.0 mm 0.00 in0.0 mm
08:51 PM 61.5°F16.4°C -166.6°F-110.3°C - Calm Calm 1.4 mph2.3 kmh 29.66 in1004.4 mb 0.00 in0.0 mm 0.00 in0.0 mm 0.00 in0.0 mm
09:06 PM 61.3°F16.3°C -166.7°F-110.4°C - Calm Calm 0.6 mph1.0 kmh 29.66 in1004.4 mb 0.00 in0.0 mm 0.00 in0.0 mm 0.00 in0.0 mm
09:21 PM 61.3°F16.3°C -166.7°F-110.4°C - Calm Calm 0.6 mph1.0 kmh 29.66 in1004.4 mb 0.00 in0.0 mm 0.00 in0.0 mm 0.00 in0.0 mm
09:36 PM 61.7°F16.5°C -166.6°F-110.3°C - 0.6 mph N1.0 kmh N 2.8 mph4.5 kmh 29.66 in1004.4 mb 0.00 in0.0 mm 0.00 in0.0 mm 0.00 in0.0 mm
09:51 PM 61.0°F16.1°C -166.7°F-110.4°C - Calm Calm 2.0 mph3.2 kmh 29.66 in1004.4 mb 0.00 in0.0 mm 0.00 in0.0 mm 0.00 in0.0 mm
10:06 PM 60.8°F16.0°C -166.7°F-110.4°C - Calm Calm 1.4 mph2.3 kmh 29.65 in1004.1 mb 0.00 in0.0 mm 0.00 in0.0 mm 0.00 in0.0 mm
10:21 PM 60.1°F15.6°C -166.8°F-110.4°C - Calm Calm 0.6 mph1.0 kmh 29.65 in1004.1 mb 0.00 in0.0 mm 0.00 in0.0 mm 0.00 in0.0 mm
10:36 PM 59.9°F15.5°C -166.8°F-110.4°C - Calm Calm 1.4 mph2.3 kmh 29.65 in1004.1 mb 0.00 in0.0 mm 0.00 in0.0 mm 0.00 in0.0 mm
10:51 PM 59.2°F15.1°C -166.9°F-110.5°C - Calm Calm 1.4 mph2.3 kmh 29.65 in1004.1 mb 0.00 in0.0 mm 0.00 in0.0 mm 0.00 in0.0 mm
11:06 PM 59.0°F15.0°C -166.9°F-110.5°C - Calm Calm 1.4 mph2.3 kmh 29.65 in1004.1 mb 0.00 in0.0 mm 0.00 in0.0 mm 0.00 in0.0 mm
11:21 PM 58.3°F14.6°C -167.0°F-110.6°C - 0.6 mph N1.0 kmh N 2.0 mph3.2 kmh 29.65 in1004.1 mb 0.00 in0.0 mm 0.00 in0.0 mm 0.00 in0.0 mm
11:36 PM 57.9°F14.4°C -167.0°F-110.6°C - Calm Calm 1.4 mph2.3 kmh 29.64 in1003.7 mb 0.00 in0.0 mm 0.00 in0.0 mm 0.00 in0.0 mm
11:51 PM 57.7°F14.3°C -167.0°F-110.6°C - Calm Calm 1.4 mph2.3 kmh 29.64 in1003.7 mb 0.00 in0.0 mm 0.00 in0.0 mm 0.00 in0.0 mm